<?xml version="1.0" encoding="UTF-8" standalone="no" ?>
<gpx xmlns="http://www.topografix.com/GPX/1/1" xmlns:xsi="http://www.w3.org/2001/XMLSchema-instance" xsi:schemaLocation="http://www.topografix.com/GPX/1/1 http://www.topografix.com/GPX/1/1/gpx.xsd" version="1.1" creator="VisuGPX - https://www.visugpx.com">
  <metadata>
    <name>13674061-Ternand-la Salette- Cabane Guerin-Ternand 2</name>
  </metadata>
  <trk>
    <name><![CDATA[13674061-Ternand-la Salette- Cabane Guerin-Ternand 2]]></name>
    <trkseg>
      <trkpt lat="45.94545" lon="4.52765">
        <ele>347</ele>
        <time>2021-09-07T15:16:01Z</time>
      </trkpt>
      <trkpt lat="45.94575" lon="4.52607">
        <ele>351</ele>
        <time>2021-09-07T15:18:33Z</time>
      </trkpt>
      <trkpt lat="45.94688" lon="4.52482">
        <ele>344</ele>
        <time>2021-09-07T15:21:43Z</time>
      </trkpt>
      <trkpt lat="45.9479" lon="4.52401">
        <ele>350</ele>
        <time>2021-09-07T15:24:19Z</time>
      </trkpt>
      <trkpt lat="45.95372" lon="4.51723">
        <ele>343</ele>
        <time>2021-09-07T15:40:58Z</time>
      </trkpt>
      <trkpt lat="45.96138" lon="4.51208">
        <ele>321</ele>
        <time>2021-09-07T15:59:47Z</time>
      </trkpt>
      <trkpt lat="45.9604" lon="4.51182">
        <ele>342</ele>
        <time>2021-09-07T16:01:59Z</time>
      </trkpt>
      <trkpt lat="45.96168" lon="4.50924">
        <ele>374</ele>
        <time>2021-09-07T16:06:54Z</time>
      </trkpt>
      <trkpt lat="45.96141" lon="4.50796">
        <ele>387</ele>
        <time>2021-09-07T16:08:58Z</time>
      </trkpt>
      <trkpt lat="45.9604" lon="4.50976">
        <ele>399</ele>
        <time>2021-09-07T16:12:32Z</time>
      </trkpt>
      <trkpt lat="45.9595" lon="4.50916">
        <ele>418</ele>
        <time>2021-09-07T16:14:45Z</time>
      </trkpt>
      <trkpt lat="45.96034" lon="4.50847">
        <ele>418</ele>
        <time>2021-09-07T16:16:54Z</time>
      </trkpt>
      <trkpt lat="45.95962" lon="4.50839">
        <ele>426</ele>
        <time>2021-09-07T16:18:30Z</time>
      </trkpt>
      <trkpt lat="45.95861" lon="4.50744">
        <ele>438</ele>
        <time>2021-09-07T16:21:11Z</time>
      </trkpt>
      <trkpt lat="45.959" lon="4.50444">
        <ele>426</ele>
        <time>2021-09-07T16:25:54Z</time>
      </trkpt>
      <trkpt lat="45.9604" lon="4.50401">
        <ele>382</ele>
        <time>2021-09-07T16:29:05Z</time>
      </trkpt>
      <trkpt lat="45.95974" lon="4.50173">
        <ele>382</ele>
        <time>2021-09-07T16:32:54Z</time>
      </trkpt>
      <trkpt lat="45.96114" lon="4.50191">
        <ele>385</ele>
        <time>2021-09-07T16:36:02Z</time>
      </trkpt>
      <trkpt lat="45.96311" lon="4.50418">
        <ele>384</ele>
        <time>2021-09-07T16:41:39Z</time>
      </trkpt>
      <trkpt lat="45.96344" lon="4.50379">
        <ele>394</ele>
        <time>2021-09-07T16:42:36Z</time>
      </trkpt>
      <trkpt lat="45.96195" lon="4.501">
        <ele>415</ele>
        <time>2021-09-07T16:48:02Z</time>
      </trkpt>
      <trkpt lat="45.96111" lon="4.49924">
        <ele>442</ele>
        <time>2021-09-07T16:51:20Z</time>
      </trkpt>
      <trkpt lat="45.95959" lon="4.49568">
        <ele>514</ele>
        <time>2021-09-07T16:57:48Z</time>
      </trkpt>
      <trkpt lat="45.95938" lon="4.49375">
        <ele>551</ele>
        <time>2021-09-07T17:00:49Z</time>
      </trkpt>
      <trkpt lat="45.96079" lon="4.49294">
        <ele>560</ele>
        <time>2021-09-07T17:04:12Z</time>
      </trkpt>
      <trkpt lat="45.96171" lon="4.49195">
        <ele>578</ele>
        <time>2021-09-07T17:06:45Z</time>
      </trkpt>
      <trkpt lat="45.96302" lon="4.49208">
        <ele>570</ele>
        <time>2021-09-07T17:09:40Z</time>
      </trkpt>
      <trkpt lat="45.96416" lon="4.49332">
        <ele>543</ele>
        <time>2021-09-07T17:12:51Z</time>
      </trkpt>
      <trkpt lat="45.96428" lon="4.49169">
        <ele>562</ele>
        <time>2021-09-07T17:15:23Z</time>
      </trkpt>
      <trkpt lat="45.96192" lon="4.48749">
        <ele>638</ele>
        <time>2021-09-07T17:23:44Z</time>
      </trkpt>
      <trkpt lat="45.96177" lon="4.48697">
        <ele>651</ele>
        <time>2021-09-07T17:24:36Z</time>
      </trkpt>
      <trkpt lat="45.96258" lon="4.48616">
        <ele>643</ele>
        <time>2021-09-07T17:26:48Z</time>
      </trkpt>
      <trkpt lat="45.96174" lon="4.48161">
        <ele>717</ele>
        <time>2021-09-07T17:34:04Z</time>
      </trkpt>
      <trkpt lat="45.96195" lon="4.47985">
        <ele>724</ele>
        <time>2021-09-07T17:36:50Z</time>
      </trkpt>
      <trkpt lat="45.9627" lon="4.47787">
        <ele>694</ele>
        <time>2021-09-07T17:40:19Z</time>
      </trkpt>
      <trkpt lat="45.96195" lon="4.47873">
        <ele>709</ele>
        <time>2021-09-07T17:42:27Z</time>
      </trkpt>
      <trkpt lat="45.96004" lon="4.4771">
        <ele>709</ele>
        <time>2021-09-07T17:47:24Z</time>
      </trkpt>
      <trkpt lat="45.95789" lon="4.47843">
        <ele>720</ele>
        <time>2021-09-07T17:52:36Z</time>
      </trkpt>
      <trkpt lat="45.95721" lon="4.47843">
        <ele>720</ele>
        <time>2021-09-07T17:54:07Z</time>
      </trkpt>
      <trkpt lat="45.95852" lon="4.47937">
        <ele>731</ele>
        <time>2021-09-07T17:57:22Z</time>
      </trkpt>
      <trkpt lat="45.95959" lon="4.48101">
        <ele>737</ele>
        <time>2021-09-07T18:00:51Z</time>
      </trkpt>
      <trkpt lat="45.96034" lon="4.48277">
        <ele>723</ele>
        <time>2021-09-07T18:04:02Z</time>
      </trkpt>
      <trkpt lat="45.9604" lon="4.48384">
        <ele>711</ele>
        <time>2021-09-07T18:05:42Z</time>
      </trkpt>
      <trkpt lat="45.9604" lon="4.48547">
        <ele>705</ele>
        <time>2021-09-07T18:08:13Z</time>
      </trkpt>
      <trkpt lat="45.95968" lon="4.48723">
        <ele>689</ele>
        <time>2021-09-07T18:11:22Z</time>
      </trkpt>
      <trkpt lat="45.95909" lon="4.48869">
        <ele>674</ele>
        <time>2021-09-07T18:13:59Z</time>
      </trkpt>
      <trkpt lat="45.95733" lon="4.48869">
        <ele>660</ele>
        <time>2021-09-07T18:17:54Z</time>
      </trkpt>
      <trkpt lat="45.95628" lon="4.48929">
        <ele>656</ele>
        <time>2021-09-07T18:20:25Z</time>
      </trkpt>
      <trkpt lat="45.95455" lon="4.49058">
        <ele>645</ele>
        <time>2021-09-07T18:24:45Z</time>
      </trkpt>
      <trkpt lat="45.95494" lon="4.49156">
        <ele>643</ele>
        <time>2021-09-07T18:26:29Z</time>
      </trkpt>
      <trkpt lat="45.9536" lon="4.49294">
        <ele>619</ele>
        <time>2021-09-07T18:30:09Z</time>
      </trkpt>
      <trkpt lat="45.9527" lon="4.49474">
        <ele>617</ele>
        <time>2021-09-07T18:33:35Z</time>
      </trkpt>
      <trkpt lat="45.95255" lon="4.49744">
        <ele>575</ele>
        <time>2021-09-07T18:37:46Z</time>
      </trkpt>
      <trkpt lat="45.95357" lon="4.50165">
        <ele>524</ele>
        <time>2021-09-07T18:44:40Z</time>
      </trkpt>
      <trkpt lat="45.95389" lon="4.50289">
        <ele>519</ele>
        <time>2021-09-07T18:46:43Z</time>
      </trkpt>
      <trkpt lat="45.95327" lon="4.50551">
        <ele>491</ele>
        <time>2021-09-07T18:51:00Z</time>
      </trkpt>
      <trkpt lat="45.95345" lon="4.50727">
        <ele>475</ele>
        <time>2021-09-07T18:53:45Z</time>
      </trkpt>
      <trkpt lat="45.95333" lon="4.50916">
        <ele>443</ele>
        <time>2021-09-07T18:56:41Z</time>
      </trkpt>
      <trkpt lat="45.95476" lon="4.50821">
        <ele>454</ele>
        <time>2021-09-07T19:00:11Z</time>
      </trkpt>
      <trkpt lat="45.95583" lon="4.5089">
        <ele>456</ele>
        <time>2021-09-07T19:02:47Z</time>
      </trkpt>
      <trkpt lat="45.95467" lon="4.5113">
        <ele>423</ele>
        <time>2021-09-07T19:07:18Z</time>
      </trkpt>
      <trkpt lat="45.95401" lon="4.51315">
        <ele>399</ele>
        <time>2021-09-07T19:10:31Z</time>
      </trkpt>
      <trkpt lat="45.9516" lon="4.51954">
        <ele>350</ele>
        <time>2021-09-07T19:21:46Z</time>
      </trkpt>
      <trkpt lat="45.94921" lon="4.52225">
        <ele>359</ele>
        <time>2021-09-07T19:28:32Z</time>
      </trkpt>
      <trkpt lat="45.94545" lon="4.52765">
        <ele>347</ele>
        <time>2021-09-07T19:40:21Z</time>
      </trkpt>
    </trkseg>
  </trk>
</gpx>